Portada
METAR-TAF:

METAR-TAF

Aeroports :

Ponta Delgada, Açores, Portugal

latitud: 37-44N, longitud: 025-42W, altitud: 71 m

Observació

L'informe es va fer fa 15 minuts, a les 21:00 UTC
Vent 6 kt del Est/Nord-Est, variant entre Nord/Nord-Est i Est
Temperatura 13°C
Humitat 82%
Pressió 1028 hPa
Visibilitat 10 km o més
Escasses núvols a una alçada de 2300 ft
Cel ennuvolat a una alçada de 4500 ft

METAR: LPPD 222100Z 06006KT 020V090 9999 FEW023 BKN045 13/10 Q1028

Hora: 20:15 (21:15 UTC)

Pronòstic

L'informe es va fer fa 4 hores i 15 minuts, a les 17:00 UTC
Pronòstic vàlid del 22 a les 18 UTC al 23 a les 18 UTC
Vent 13 kt del Nord-Est
Visibilitat 10 km o més
Núvols disperses a una alçada de 2000 ft
Temporalment
l' 22 a les 18 UTC al 23 a les 18 UTC
Núvols disperses a una alçada de 1800 ft
Cel ennuvolat a una alçada de 4000 ft

TAF: LPPD 221700Z 2218/2318 04013KT 9999 SCT020 TEMPO 2218/2318 SCT018 BKN040

Observacions i pronòstics meteorològics de més de 4000 aeroports (METAR i TAF).

Les estacions disponibles són els punts grocs i vermells al mapa.

Posi el ratolí al punt desitjat per veure el nom de l'estació.

Feu clic per veure les observacions i els pronòstics meteorològics.

Per canviar el mapa: feu clic els botons verds amb una creu de color negre per apropar; al botó verd amb un guió per allunyar la imatge; o en les fletxes verdes per a mapes adjacents.


METAR-TAF: